sensor_id;sensor_type;location;lat;lon;timestamp;pressure;altitude;pressure_sealevel;temperature;humidity
30636;BME280;17400;52.392;9.750;2022-11-15T00:01:15;100508.84;;;8.18;100.00
30636;BME280;17400;52.392;9.750;2022-11-15T00:03:43;100509.06;;;8.16;100.00
30636;BME280;17400;52.392;9.750;2022-11-15T00:06:11;100513.59;;;8.16;100.00
30636;BME280;17400;52.392;9.750;2022-11-15T00:08:39;100505.50;;;8.16;100.00
30636;BME280;17400;52.392;9.750;2022-11-15T00:11:11;100510.53;;;8.19;100.00
30636;BME280;17400;52.392;9.750;2022-11-15T00:13:39;100510.34;;;8.21;100.00
30636;BME280;17400;52.392;9.750;2022-11-15T00:16:08;100517.13;;;8.16;100.00
30636;BME280;17400;52.392;9.750;2022-11-15T00:18:37;100517.50;;;8.13;100.00
30636;BME280;17400;52.392;9.750;2022-11-15T00:21:06;100516.09;;;8.17;100.00
30636;BME280;17400;52.392;9.750;2022-11-15T00:23:35;100520.28;;;8.20;100.00
30636;BME280;17400;52.392;9.750;2022-11-15T00:26:03;100503.56;;;8.25;100.00
30636;BME280;17400;52.392;9.750;2022-11-15T00:28:32;100493.03;;;8.30;100.00
30636;BME280;17400;52.392;9.750;2022-11-15T00:31:01;100503.63;;;8.31;100.00
30636;BME280;17400;52.392;9.750;2022-11-15T00:33:30;100500.94;;;8.31;100.00
30636;BME280;17400;52.392;9.750;2022-11-15T00:36:00;100500.75;;;8.33;100.00
30636;BME280;17400;52.392;9.750;2022-11-15T00:38:31;100501.97;;;8.30;100.00
30636;BME280;17400;52.392;9.750;2022-11-15T00:41:00;100503.63;;;8.31;100.00
30636;BME280;17400;52.392;9.750;2022-11-15T00:43:34;100502.81;;;8.31;100.00
30636;BME280;17400;52.392;9.750;2022-11-15T00:46:02;100507.00;;;8.33;100.00
30636;BME280;17400;52.392;9.750;2022-11-15T00:48:31;100509.50;;;8.35;100.00
30636;BME280;17400;52.392;9.750;2022-11-15T00:50:59;100502.25;;;8.36;100.00
30636;BME280;17400;52.392;9.750;2022-11-15T00:53:27;100498.31;;;8.38;100.00
30636;BME280;17400;52.392;9.750;2022-11-15T00:55:55;100496.28;;;8.40;100.00
30636;BME280;17400;52.392;9.750;2022-11-15T00:58:23;100489.84;;;8.41;100.00
30636;BME280;17400;52.392;9.750;2022-11-15T01:00:51;100485.94;;;8.44;100.00
30636;BME280;17400;52.392;9.750;2022-11-15T01:03:19;100491.00;;;8.47;100.00
30636;BME280;17400;52.392;9.750;2022-11-15T01:05:48;100490.63;;;8.50;100.00
30636;BME280;17400;52.392;9.750;2022-11-15T01:08:16;100479.63;;;8.52;100.00
30636;BME280;17400;52.392;9.750;2022-11-15T01:10:44;100483.00;;;8.54;100.00
30636;BME280;17400;52.392;9.750;2022-11-15T01:13:12;100476.75;;;8.53;100.00
30636;BME280;17400;52.392;9.750;2022-11-15T01:15:40;100474.03;;;8.53;100.00
30636;BME280;17400;52.392;9.750;2022-11-15T01:18:08;100468.91;;;8.58;100.00
30636;BME280;17400;52.392;9.750;2022-11-15T01:20:39;100468.09;;;8.58;100.00
30636;BME280;17400;52.392;9.750;2022-11-15T01:23:08;100464.38;;;8.59;100.00
30636;BME280;17400;52.392;9.750;2022-11-15T01:25:36;100470.41;;;8.61;100.00
30636;BME280;17400;52.392;9.750;2022-11-15T01:28:04;100461.94;;;8.64;100.00
30636;BME280;17400;52.392;9.750;2022-11-15T01:30:32;100458.66;;;8.69;100.00
30636;BME280;17400;52.392;9.750;2022-11-15T01:33:00;100456.44;;;8.72;100.00
30636;BME280;17400;52.392;9.750;2022-11-15T01:35:27;100450.44;;;8.77;100.00
30636;BME280;17400;52.392;9.750;2022-11-15T01:37:55;100449.22;;;8.79;100.00
30636;BME280;17400;52.392;9.750;2022-11-15T01:40:25;100438.06;;;8.82;100.00
30636;BME280;17400;52.392;9.750;2022-11-15T01:42:52;100436.84;;;8.85;100.00
30636;BME280;17400;52.392;9.750;2022-11-15T01:45:20;100436.00;;;8.84;100.00
30636;BME280;17400;52.392;9.750;2022-11-15T01:47:51;100434.97;;;8.86;100.00
30636;BME280;17400;52.392;9.750;2022-11-15T01:50:22;100439.34;;;8.87;100.00
30636;BME280;17400;52.392;9.750;2022-11-15T01:52:51;100424.16;;;8.86;100.00
30636;BME280;17400;52.392;9.750;2022-11-15T01:55:21;100431.44;;;8.85;100.00
30636;BME280;17400;52.392;9.750;2022-11-15T01:57:55;100431.03;;;8.88;100.00
30636;BME280;17400;52.392;9.750;2022-11-15T02:00:24;100421.94;;;8.89;100.00
30636;BME280;17400;52.392;9.750;2022-11-15T02:02:52;100427.13;;;8.91;100.00
30636;BME280;17400;52.392;9.750;2022-11-15T02:05:21;100437.53;;;8.94;100.00
30636;BME280;17400;52.392;9.750;2022-11-15T02:07:49;100431.31;;;8.93;100.00
30636;BME280;17400;52.392;9.750;2022-11-15T02:10:19;100435.50;;;8.96;100.00
30636;BME280;17400;52.392;9.750;2022-11-15T02:12:48;100429.88;;;8.97;100.00
30636;BME280;17400;52.392;9.750;2022-11-15T02:15:18;100420.56;;;9.00;100.00
30636;BME280;17400;52.392;9.750;2022-11-15T02:18:01;100414.16;;;9.01;100.00
30636;BME280;17400;52.392;9.750;2022-11-15T02:20:47;100416.66;;;9.03;100.00
30636;BME280;17400;52.392;9.750;2022-11-15T02:23:37;100417.09;;;9.06;100.00
30636;BME280;17400;52.392;9.750;2022-11-15T02:26:26;100409.63;;;9.08;100.00
30636;BME280;17400;52.392;9.750;2022-11-15T02:29:01;100410.28;;;9.10;100.00
30636;BME280;17400;52.392;9.750;2022-11-15T02:31:37;100400.09;;;9.12;100.00
30636;BME280;17400;52.392;9.750;2022-11-15T02:34:14;100405.31;;;9.14;100.00
30636;BME280;17400;52.392;9.750;2022-11-15T02:36:50;100399.72;;;9.15;100.00
30636;BME280;17400;52.392;9.750;2022-11-15T02:39:28;100393.47;;;9.15;100.00
30636;BME280;17400;52.392;9.750;2022-11-15T02:42:02;100398.25;;;9.13;100.00
30636;BME280;17400;52.392;9.750;2022-11-15T02:44:32;100393.88;;;9.12;100.00
30636;BME280;17400;52.392;9.750;2022-11-15T02:47:04;100391.78;;;9.14;100.00
30636;BME280;17400;52.392;9.750;2022-11-15T02:49:43;100387.88;;;9.16;100.00
30636;BME280;17400;52.392;9.750;2022-11-15T02:52:15;100385.81;;;9.19;100.00
30636;BME280;17400;52.392;9.750;2022-11-15T02:54:53;100388.31;;;9.20;100.00
30636;BME280;17400;52.392;9.750;2022-11-15T02:57:32;100383.56;;;9.22;100.00
30636;BME280;17400;52.392;9.750;2022-11-15T03:00:08;100368.19;;;9.23;100.00
30636;BME280;17400;52.392;9.750;2022-11-15T03:02:58;100366.31;;;9.23;100.00
30636;BME280;17400;52.392;9.750;2022-11-15T03:05:35;100370.69;;;9.24;100.00
30636;BME280;17400;52.392;9.750;2022-11-15T03:08:09;100381.50;;;9.24;100.00
30636;BME280;17400;52.392;9.750;2022-11-15T03:10:43;100381.69;;;9.23;100.00
30636;BME280;17400;52.392;9.750;2022-11-15T03:13:20;100375.84;;;9.19;100.00
30636;BME280;17400;52.392;9.750;2022-11-15T03:15:54;100374.16;;;9.18;100.00
30636;BME280;17400;52.392;9.750;2022-11-15T03:18:30;100363.56;;;9.16;100.00
30636;BME280;17400;52.392;9.750;2022-11-15T03:21:01;100371.47;;;9.18;100.00
30636;BME280;17400;52.392;9.750;2022-11-15T03:23:31;100361.50;;;9.19;100.00
30636;BME280;17400;52.392;9.750;2022-11-15T03:26:01;100361.13;;;9.22;100.00
30636;BME280;17400;52.392;9.750;2022-11-15T03:28:34;100356.97;;;9.26;100.00
30636;BME280;17400;52.392;9.750;2022-11-15T03:31:04;100360.75;;;9.25;100.00
30636;BME280;17400;52.392;9.750;2022-11-15T03:33:57;100367.59;;;9.27;100.00
30636;BME280;17400;52.392;9.750;2022-11-15T03:36:26;100363.03;;;9.28;100.00
30636;BME280;17400;52.392;9.750;2022-11-15T03:38:56;100366.34;;;9.30;100.00
30636;BME280;17400;52.392;9.750;2022-11-15T03:41:31;100370.38;;;9.34;100.00
30636;BME280;17400;52.392;9.750;2022-11-15T03:44:09;100367.44;;;9.36;100.00
30636;BME280;17400;52.392;9.750;2022-11-15T03:46:46;100368.28;;;9.36;100.00
30636;BME280;17400;52.392;9.750;2022-11-15T03:49:20;100374.13;;;9.40;100.00
30636;BME280;17400;52.392;9.750;2022-11-15T03:51:50;100372.91;;;9.42;100.00
30636;BME280;17400;52.392;9.750;2022-11-15T03:54:18;100371.03;;;9.43;100.00
30636;BME280;17400;52.392;9.750;2022-11-15T03:56:46;100369.78;;;9.45;100.00
30636;BME280;17400;52.392;9.750;2022-11-15T03:59:13;100373.75;;;9.49;100.00
30636;BME280;17400;52.392;9.750;2022-11-15T04:01:41;100374.63;;;9.50;100.00
30636;BME280;17400;52.392;9.750;2022-11-15T04:04:09;100376.25;;;9.51;100.00
30636;BME280;17400;52.392;9.750;2022-11-15T04:06:38;100376.72;;;9.55;100.00
30636;BME280;17400;52.392;9.750;2022-11-15T04:09:06;100367.56;;;9.56;100.00
30636;BME280;17400;52.392;9.750;2022-11-15T04:11:34;100362.16;;;9.56;100.00
30636;BME280;17400;52.392;9.750;2022-11-15T04:14:02;100351.97;;;9.58;100.00
30636;BME280;17400;52.392;9.750;2022-11-15T04:16:29;100352.84;;;9.58;100.00
30636;BME280;17400;52.392;9.750;2022-11-15T04:18:57;100359.06;;;9.59;100.00
30636;BME280;17400;52.392;9.750;2022-11-15T04:21:44;100356.34;;;9.59;100.00
30636;BME280;17400;52.392;9.750;2022-11-15T04:24:29;100350.94;;;9.59;100.00
30636;BME280;17400;52.392;9.750;2022-11-15T04:26:57;100353.84;;;9.57;100.00
30636;BME280;17400;52.392;9.750;2022-11-15T04:29:25;100341.16;;;9.58;100.00
30636;BME280;17400;52.392;9.750;2022-11-15T04:32:02;100355.34;;;9.60;100.00
30636;BME280;17400;52.392;9.750;2022-11-15T04:34:31;100354.31;;;9.61;100.00
30636;BME280;17400;52.392;9.750;2022-11-15T04:37:00;100361.38;;;9.62;100.00
30636;BME280;17400;52.392;9.750;2022-11-15T04:39:42;100353.91;;;9.64;100.00
30636;BME280;17400;52.392;9.750;2022-11-15T04:42:11;100361.78;;;9.65;100.00
30636;BME280;17400;52.392;9.750;2022-11-15T04:44:38;100362.66;;;9.66;100.00
30636;BME280;17400;52.392;9.750;2022-11-15T04:47:06;100356.84;;;9.69;100.00
30636;BME280;17400;52.392;9.750;2022-11-15T04:49:34;100361.00;;;9.72;100.00
30636;BME280;17400;52.392;9.750;2022-11-15T04:52:03;100365.78;;;9.76;100.00
30636;BME280;17400;52.392;9.750;2022-11-15T04:54:31;100374.56;;;9.78;100.00
30636;BME280;17400;52.392;9.750;2022-11-15T04:56:59;100376.22;;;9.79;100.00
30636;BME280;17400;52.392;9.750;2022-11-15T04:59:26;100375.81;;;9.82;100.00
30636;BME280;17400;52.392;9.750;2022-11-15T05:01:54;100380.63;;;9.87;100.00
30636;BME280;17400;52.392;9.750;2022-11-15T05:04:22;100377.72;;;9.89;100.00
30636;BME280;17400;52.392;9.750;2022-11-15T05:06:50;100380.03;;;9.92;100.00
30636;BME280;17400;52.392;9.750;2022-11-15T05:09:20;100380.47;;;9.95;100.00
30636;BME280;17400;52.392;9.750;2022-11-15T05:11:48;100385.66;;;9.97;100.00
30636;BME280;17400;52.392;9.750;2022-11-15T05:14:16;100389.00;;;9.99;100.00
30636;BME280;17400;52.392;9.750;2022-11-15T05:16:44;100384.22;;;10.01;100.00
30636;BME280;17400;52.392;9.750;2022-11-15T05:19:11;100385.91;;;10.02;100.00
30636;BME280;17400;52.392;9.750;2022-11-15T05:21:39;100389.25;;;10.04;100.00
30636;BME280;17400;52.392;9.750;2022-11-15T05:24:09;100386.34;;;10.06;100.00
30636;BME280;17400;52.392;9.750;2022-11-15T05:26:38;100386.13;;;10.07;100.00
30636;BME280;17400;52.392;9.750;2022-11-15T05:29:08;100396.75;;;10.09;100.00
30636;BME280;17400;52.392;9.750;2022-11-15T05:31:39;100383.88;;;10.11;100.00
30636;BME280;17400;52.392;9.750;2022-11-15T05:34:07;100388.03;;;10.13;100.00
30636;BME280;17400;52.392;9.750;2022-11-15T05:36:36;100388.22;;;10.12;100.00
30636;BME280;17400;52.392;9.750;2022-11-15T05:39:06;100392.38;;;10.14;100.00
30636;BME280;17400;52.392;9.750;2022-11-15T05:41:39;100384.28;;;10.14;100.00
30636;BME280;17400;52.392;9.750;2022-11-15T05:44:11;100386.97;;;10.14;100.00
30636;BME280;17400;52.392;9.750;2022-11-15T05:46:41;100385.94;;;10.15;100.00
30636;BME280;17400;52.392;9.750;2022-11-15T05:49:11;100380.34;;;10.17;100.00
30636;BME280;17400;52.392;9.750;2022-11-15T05:51:41;100381.19;;;10.17;100.00
30636;BME280;17400;52.392;9.750;2022-11-15T05:54:10;100375.78;;;10.17;100.00
30636;BME280;17400;52.392;9.750;2022-11-15T05:56:39;100377.41;;;10.18;100.00
30636;BME280;17400;52.392;9.750;2022-11-15T05:59:08;100368.72;;;10.23;100.00
30636;BME280;17400;52.392;9.750;2022-11-15T06:01:36;100376.63;;;10.31;100.00
30636;BME280;17400;52.392;9.750;2022-11-15T06:04:05;100369.59;;;10.37;100.00
30636;BME280;17400;52.392;9.750;2022-11-15T06:06:33;100367.13;;;10.42;100.00
30636;BME280;17400;52.392;9.750;2022-11-15T06:09:01;100369.63;;;10.44;100.00
30636;BME280;17400;52.392;9.750;2022-11-15T06:11:31;100368.38;;;10.46;100.00
30636;BME280;17400;52.392;9.750;2022-11-15T06:14:00;100371.72;;;10.48;100.00
30636;BME280;17400;52.392;9.750;2022-11-15T06:16:28;100375.88;;;10.44;100.00
30636;BME280;17400;52.392;9.750;2022-11-15T06:18:56;100380.84;;;10.41;100.00
30636;BME280;17400;52.392;9.750;2022-11-15T06:21:24;100377.31;;;10.40;100.00
30636;BME280;17400;52.392;9.750;2022-11-15T06:23:54;100372.94;;;10.39;100.00
30636;BME280;17400;52.392;9.750;2022-11-15T06:26:22;100379.38;;;10.38;100.00
30636;BME280;17400;52.392;9.750;2022-11-15T06:28:50;100375.41;;;10.34;100.00
30636;BME280;17400;52.392;9.750;2022-11-15T06:31:19;100377.88;;;10.29;100.00
30636;BME280;17400;52.392;9.750;2022-11-15T06:33:46;100376.19;;;10.28;100.00
30636;BME280;17400;52.392;9.750;2022-11-15T06:36:15;100367.69;;;10.24;100.00
30636;BME280;17400;52.392;9.750;2022-11-15T06:38:44;100373.06;;;10.17;100.00
30636;BME280;17400;52.392;9.750;2022-11-15T06:41:13;100381.59;;;10.21;100.00
30636;BME280;17400;52.392;9.750;2022-11-15T06:43:41;100372.00;;;10.18;100.00
30636;BME280;17400;52.392;9.750;2022-11-15T06:46:09;100385.94;;;10.15;100.00
30636;BME280;17400;52.392;9.750;2022-11-15T06:48:40;100381.97;;;10.11;100.00
30636;BME280;17400;52.392;9.750;2022-11-15T06:51:07;100391.56;;;10.14;100.00
30636;BME280;17400;52.392;9.750;2022-11-15T06:53:35;100388.41;;;10.10;100.00
30636;BME280;17400;52.392;9.750;2022-11-15T06:56:05;100387.81;;;10.08;100.00
30636;BME280;17400;52.392;9.750;2022-11-15T06:58:33;100388.63;;;10.09;100.00
30636;BME280;17400;52.392;9.750;2022-11-15T07:01:04;100388.63;;;10.09;100.00
30636;BME280;17400;52.392;9.750;2022-11-15T07:03:34;100393.22;;;10.08;100.00
30636;BME280;17400;52.392;9.750;2022-11-15T07:06:03;100389.03;;;10.06;100.00
30636;BME280;17400;52.392;9.750;2022-11-15T07:08:34;100400.44;;;10.01;100.00
30636;BME280;17400;52.392;9.750;2022-11-15T07:11:04;100402.53;;;9.99;100.00
30636;BME280;17400;52.392;9.750;2022-11-15T07:13:33;100403.97;;;9.95;100.00
30636;BME280;17400;52.392;9.750;2022-11-15T07:16:02;100409.97;;;9.90;100.00
30636;BME280;17400;52.392;9.750;2022-11-15T07:18:30;100406.84;;;9.93;100.00
30636;BME280;17400;52.392;9.750;2022-11-15T07:21:00;100403.31;;;9.93;100.00
30636;BME280;17400;52.392;9.750;2022-11-15T07:23:30;100401.66;;;9.92;100.00
30636;BME280;17400;52.392;9.750;2022-11-15T07:25:59;100400.63;;;9.93;100.00
30636;BME280;17400;52.392;9.750;2022-11-15T07:28:27;100403.13;;;9.94;100.00
30636;BME280;17400;52.392;9.750;2022-11-15T07:30:55;100407.72;;;9.94;100.00
30636;BME280;17400;52.392;9.750;2022-11-15T07:33:23;100401.88;;;9.97;100.00
30636;BME280;17400;52.392;9.750;2022-11-15T07:35:51;100402.34;;;10.00;100.00
30636;BME280;17400;52.392;9.750;2022-11-15T07:38:18;100407.31;;;10.04;100.00
30636;BME280;17400;52.392;9.750;2022-11-15T07:40:56;100406.50;;;10.03;100.00
30636;BME280;17400;52.392;9.750;2022-11-15T07:43:24;100405.66;;;10.03;100.00
30636;BME280;17400;52.392;9.750;2022-11-15T07:45:52;100410.69;;;10.06;100.00
30636;BME280;17400;52.392;9.750;2022-11-15T07:48:24;100400.47;;;10.08;100.00
30636;BME280;17400;52.392;9.750;2022-11-15T07:51:10;100394.84;;;10.09;100.00
30636;BME280;17400;52.392;9.750;2022-11-15T07:53:40;100394.44;;;10.06;100.00
30636;BME280;17400;52.392;9.750;2022-11-15T07:56:09;100403.38;;;10.06;100.00
30636;BME280;17400;52.392;9.750;2022-11-15T07:58:37;100393.81;;;10.10;100.00
30636;BME280;17400;52.392;9.750;2022-11-15T08:01:06;100397.41;;;10.17;100.00
30636;BME280;17400;52.392;9.750;2022-11-15T08:03:35;100401.16;;;10.16;100.00
30636;BME280;17400;52.392;9.750;2022-11-15T08:06:03;100400.13;;;10.17;100.00
30636;BME280;17400;52.392;9.750;2022-11-15T08:08:31;100397.41;;;10.17;100.00
30636;BME280;17400;52.392;9.750;2022-11-15T08:10:59;100393.06;;;10.23;100.00
30636;BME280;17400;52.392;9.750;2022-11-15T08:13:28;100400.53;;;10.28;100.00
30636;BME280;17400;52.392;9.750;2022-11-15T08:15:59;100391.00;;;10.32;100.00
30636;BME280;17400;52.392;9.750;2022-11-15T08:18:27;100389.78;;;10.34;100.00
30636;BME280;17400;52.392;9.750;2022-11-15T08:20:58;100393.13;;;10.37;100.00
30636;BME280;17400;52.392;9.750;2022-11-15T08:23:26;100388.38;;;10.45;100.00
30636;BME280;17400;52.392;9.750;2022-11-15T08:25:59;100385.47;;;10.54;100.00
30636;BME280;17400;52.392;9.750;2022-11-15T08:28:29;100391.72;;;10.61;100.00
30636;BME280;17400;52.392;9.750;2022-11-15T08:30:57;100394.25;;;10.69;100.00
30636;BME280;17400;52.392;9.750;2022-11-15T08:33:25;100400.72;;;10.75;100.00
30636;BME280;17400;52.392;9.750;2022-11-15T08:35:56;100389.88;;;10.81;100.00
30636;BME280;17400;52.392;9.750;2022-11-15T08:38:23;100385.50;;;10.87;100.00
30636;BME280;17400;52.392;9.750;2022-11-15T08:40:52;100395.72;;;10.92;100.00
30636;BME280;17400;52.392;9.750;2022-11-15T08:43:23;100385.50;;;11.00;100.00
30636;BME280;17400;52.392;9.750;2022-11-15T08:45:55;100391.56;;;11.03;100.00
30636;BME280;17400;52.392;9.750;2022-11-15T08:48:23;100389.06;;;11.14;100.00
30636;BME280;17400;52.392;9.750;2022-11-15T08:50:53;100385.94;;;11.17;100.00
30636;BME280;17400;52.392;9.750;2022-11-15T08:53:21;100383.00;;;11.19;100.00
30636;BME280;17400;52.392;9.750;2022-11-15T08:55:49;100384.06;;;11.25;100.00
30636;BME280;17400;52.392;9.750;2022-11-15T08:58:17;100384.06;;;11.31;100.00
30636;BME280;17400;52.392;9.750;2022-11-15T09:00:45;100381.56;;;11.37;100.00
30636;BME280;17400;52.392;9.750;2022-11-15T09:03:14;100381.34;;;11.45;100.00
30636;BME280;17400;52.392;9.750;2022-11-15T09:05:42;100380.50;;;11.44;100.00
30636;BME280;17400;52.392;9.750;2022-11-15T09:08:09;100386.31;;;11.48;100.00
30636;BME280;17400;52.392;9.750;2022-11-15T09:10:57;100392.38;;;11.57;100.00
30636;BME280;17400;52.392;9.750;2022-11-15T09:13:25;100391.31;;;11.64;100.00
30636;BME280;17400;52.392;9.750;2022-11-15T09:15:57;100380.25;;;11.66;100.00
30636;BME280;17400;52.392;9.750;2022-11-15T09:18:26;100379.81;;;11.69;100.00
30636;BME280;17400;52.392;9.750;2022-11-15T09:20:55;100382.94;;;11.73;100.00
30636;BME280;17400;52.392;9.750;2022-11-15T09:23:24;100383.75;;;11.73;100.00
30636;BME280;17400;52.392;9.750;2022-11-15T09:25:58;100373.97;;;11.79;100.00
30636;BME280;17400;52.392;9.750;2022-11-15T09:28:27;100378.28;;;11.87;100.00
30636;BME280;17400;52.392;9.750;2022-11-15T09:30:57;100373.94;;;11.86;100.00
30636;BME280;17400;52.392;9.750;2022-11-15T09:33:27;100364.09;;;11.91;100.00
30636;BME280;17400;52.392;9.750;2022-11-15T09:36:00;100369.97;;;11.95;100.00
30636;BME280;17400;52.392;9.750;2022-11-15T09:38:28;100371.78;;;11.94;100.00
30636;BME280;17400;52.392;9.750;2022-11-15T09:41:13;100373.91;;;11.99;100.00
30636;BME280;17400;52.392;9.750;2022-11-15T09:43:53;100373.47;;;12.02;100.00
30636;BME280;17400;52.392;9.750;2022-11-15T09:46:33;100374.09;;;12.04;100.00
30636;BME280;17400;52.392;9.750;2022-11-15T09:49:08;100376.81;;;12.04;100.00
30636;BME280;17400;52.392;9.750;2022-11-15T09:51:38;100376.59;;;12.06;100.00
30636;BME280;17400;52.392;9.750;2022-11-15T09:54:27;100380.13;;;12.06;100.00
30636;BME280;17400;52.392;9.750;2022-11-15T09:57:18;100379.72;;;12.09;100.00
30636;BME280;17400;52.392;9.750;2022-11-15T09:59:58;100373.84;;;12.12;100.00
30636;BME280;17400;52.392;9.750;2022-11-15T10:02:59;100377.34;;;12.20;100.00
30636;BME280;17400;52.392;9.750;2022-11-15T10:05:36;100369.41;;;12.25;100.00
30636;BME280;17400;52.392;9.750;2022-11-15T10:08:16;100374.78;;;12.31;100.00
30636;BME280;17400;52.392;9.750;2022-11-15T10:10:50;100375.19;;;12.35;100.00
30636;BME280;17400;52.392;9.750;2022-11-15T10:13:41;100370.19;;;12.39;100.00
30636;BME280;17400;52.392;9.750;2022-11-15T10:16:22;100355.94;;;12.43;100.00
30636;BME280;17400;52.392;9.750;2022-11-15T10:19:00;100349.91;;;12.41;100.00
30636;BME280;17400;52.392;9.750;2022-11-15T10:21:40;100348.25;;;12.40;100.00
30636;BME280;17400;52.392;9.750;2022-11-15T10:24:17;100347.19;;;12.41;100.00
30636;BME280;17400;52.392;9.750;2022-11-15T10:26:46;100347.59;;;12.45;100.00
30636;BME280;17400;52.392;9.750;2022-11-15T10:29:18;100345.88;;;12.50;100.00
30636;BME280;17400;52.392;9.750;2022-11-15T10:31:52;100351.09;;;12.52;100.00
30636;BME280;17400;52.392;9.750;2022-11-15T10:34:22;100351.72;;;12.54;100.00
30636;BME280;17400;52.392;9.750;2022-11-15T10:36:56;100355.25;;;12.55;100.00
30636;BME280;17400;52.392;9.750;2022-11-15T10:39:24;100349.81;;;12.55;100.00
30636;BME280;17400;52.392;9.750;2022-11-15T10:41:52;100339.56;;;12.57;100.00
30636;BME280;17400;52.392;9.750;2022-11-15T10:44:26;100337.00;;;12.62;100.00
30636;BME280;17400;52.392;9.750;2022-11-15T10:49:57;100326.31;;;12.67;100.00
30636;BME280;17400;52.392;9.750;2022-11-15T10:52:28;100323.19;;;12.70;100.00
30636;BME280;17400;52.392;9.750;2022-11-15T10:55:02;100327.34;;;12.73;100.00
30636;BME280;17400;52.392;9.750;2022-11-15T10:57:33;100319.56;;;12.76;100.00
30636;BME280;17400;52.392;9.750;2022-11-15T11:00:06;100321.47;;;12.76;100.00
30636;BME280;17400;52.392;9.750;2022-11-15T11:02:37;100321.88;;;12.79;100.00
30636;BME280;17400;52.392;9.750;2022-11-15T11:05:24;100319.75;;;12.81;100.00
30636;BME280;17400;52.392;9.750;2022-11-15T11:07:57;100314.31;;;12.81;100.00
30636;BME280;17400;52.392;9.750;2022-11-15T11:10:26;100307.03;;;12.75;100.00
30636;BME280;17400;52.392;9.750;2022-11-15T11:13:14;100312.53;;;12.69;100.00
30636;BME280;17400;52.392;9.750;2022-11-15T11:15:52;100315.69;;;12.65;100.00
30636;BME280;17400;52.392;9.750;2022-11-15T11:18:26;100314.66;;;12.66;100.00
30636;BME280;17400;52.392;9.750;2022-11-15T11:20:58;100312.31;;;12.70;100.00
30636;BME280;17400;52.392;9.750;2022-11-15T11:23:44;100294.97;;;12.71;100.00
30636;BME280;17400;52.392;9.750;2022-11-15T11:26:29;100287.25;;;12.68;100.00
30636;BME280;17400;52.392;9.750;2022-11-15T11:29:12;100285.59;;;12.67;100.00
30636;BME280;17400;52.392;9.750;2022-11-15T11:31:51;100287.88;;;12.70;100.00
30636;BME280;17400;52.392;9.750;2022-11-15T11:34:38;100286.00;;;12.71;100.00
30636;BME280;17400;52.392;9.750;2022-11-15T11:37:14;100288.47;;;12.72;100.00
30636;BME280;17400;52.392;9.750;2022-11-15T11:39:56;100285.94;;;12.77;100.00
30636;BME280;17400;52.392;9.750;2022-11-15T11:42:37;100281.94;;;12.80;100.00
30636;BME280;17400;52.392;9.750;2022-11-15T11:45:15;100280.66;;;12.82;100.00
30636;BME280;17400;52.392;9.750;2022-11-15T11:47:47;100281.22;;;12.91;100.00
30636;BME280;17400;52.392;9.750;2022-11-15T11:50:18;100281.75;;;13.00;100.00
30636;BME280;17400;52.392;9.750;2022-11-15T11:52:55;100281.09;;;13.05;100.00
30636;BME280;17400;52.392;9.750;2022-11-15T11:55:32;100275.59;;;13.11;100.00
30636;BME280;17400;52.392;9.750;2022-11-15T11:58:09;100275.59;;;13.11;100.00
30636;BME280;17400;52.392;9.750;2022-11-15T12:00:40;100280.41;;;13.28;100.00
30636;BME280;17400;52.392;9.750;2022-11-15T12:03:11;100265.28;;;13.39;100.00
30636;BME280;17400;52.392;9.750;2022-11-15T12:05:44;100274.78;;;13.48;100.00
30636;BME280;17400;52.392;9.750;2022-11-15T12:08:24;100270.59;;;13.52;100.00
30636;BME280;17400;52.392;9.750;2022-11-15T12:11:04;100259.25;;;13.55;100.00
30636;BME280;17400;52.392;9.750;2022-11-15T12:13:35;100262.84;;;13.49;100.00
30636;BME280;17400;52.392;9.750;2022-11-15T12:16:10;100265.13;;;13.52;100.00
30636;BME280;17400;52.392;9.750;2022-11-15T12:18:41;100257.56;;;13.54;100.00
30636;BME280;17400;52.392;9.750;2022-11-15T12:21:15;100253.19;;;13.53;100.00
30636;BME280;17400;52.392;9.750;2022-11-15T12:23:55;100247.50;;;13.55;100.00
30636;BME280;17400;52.392;9.750;2022-11-15T12:26:32;100250.94;;;13.50;100.00
30636;BME280;17400;52.392;9.750;2022-11-15T12:29:06;100255.84;;;13.41;100.00
30636;BME280;17400;52.392;9.750;2022-11-15T12:31:39;100255.69;;;13.36;100.00
30636;BME280;17400;52.392;9.750;2022-11-15T12:34:29;100251.72;;;13.32;100.00
30636;BME280;17400;52.392;9.750;2022-11-15T12:36:58;100242.53;;;13.33;100.00
30636;BME280;17400;52.392;9.750;2022-11-15T12:42:40;100252.81;;;13.31;100.00
30636;BME280;17400;52.392;9.750;2022-11-15T12:45:25;100234.38;;;13.33;100.00
30636;BME280;17400;52.392;9.750;2022-11-15T12:47:57;100232.66;;;13.39;100.00
30636;BME280;17400;52.392;9.750;2022-11-15T12:50:55;100232.66;;;13.39;100.00
30636;BME280;17400;52.392;9.750;2022-11-15T12:53:28;100225.78;;;13.36;100.00
30636;BME280;17400;52.392;9.750;2022-11-15T12:56:18;100219.72;;;13.34;100.00
30636;BME280;17400;52.392;9.750;2022-11-15T12:58:50;100217.63;;;13.36;100.00
30636;BME280;17400;52.392;9.750;2022-11-15T13:04:26;100223.69;;;13.38;100.00
30636;BME280;17400;52.392;9.750;2022-11-15T13:06:56;100220.13;;;13.38;100.00
30636;BME280;17400;52.392;9.750;2022-11-15T13:09:51;100212.19;;;13.36;100.00
30636;BME280;17400;52.392;9.750;2022-11-15T13:12:50;100200.69;;;13.34;100.00
30636;BME280;17400;52.392;9.750;2022-11-15T13:15:37;100193.81;;;13.31;100.00
30636;BME280;17400;52.392;9.750;2022-11-15T13:18:29;100186.13;;;13.28;100.00
30636;BME280;17400;52.392;9.750;2022-11-15T13:20:59;100187.41;;;13.26;100.00